Mission Trails (636, 639) Station Data

Red Flag Warning: No
Fire Weather Zone: 250
SDGE Region: Beach Cities
Lat/Lon: 32.842/-117.056

Observations

Time Wind Speed/Gust Temp(F) RH Fuel Moist Fuel Temp(F) Dewpt(F) Tmax(F) Tmin(F) Accum Precip 10-min Precip SL Press(mb)
6/22 5:00am 214 3 G 5 60° 100% - - 60° 61.1° 59.2° - - 1008.0
6/22 4:50am 219 3 G 4 60° 100% - - 60° 61.1° 59.2° - - 1008.0
6/22 4:40am 205 3 G 4 60° 100% - - 60° 61.1° 59.4° - - 1008.0
6/22 4:30am 197 3 G 4 60° 100% - - 60° 61.1° 59.5° - - 1008.0
6/22 4:20am 204 2 G 4 60° 100% - - 60° 61.1° 59.5° - - 1008.0
6/22 4:10am 222 1 G 3 60° 100% - - 60° 61.1° 59.5° - - 1008.0
6/22 4:00am 258 1 G 4 60° 100% - - 60° 61.1° 59.5° - - 1008.0
6/22 3:50am 231 0 G 2 60° 100% - - 60° 61.1° 59.5° - - 1008.0
6/22 3:40am 236 1 G 2 60° 100% - - 60° 61.1° 59.5° - - 1007.0
6/22 3:30am 221 2 G 3 60° 100% - - 60° 61.1° 59.5° - - 1007.0
6/22 3:20am 237 1 G 3 60° 100% - - 60° 61.1° 59.5° - - 1007.0
6/22 3:10am 219 2 G 3 60° 100% - - 60° 61.1° 59.5° - - 1007.0
6/22 3:00am 227 1 G 3 60° 100% - - 60° 61.1° 59.5° - - 1008.0
6/22 2:50am 233 1 G 3 60° 100% - - 60° 61.1° 59.5° - - 1008.0
6/22 2:40am 222 3 G 5 60° 100% - - 60° 61.1° 59.5° - - 1008.0
6/22 2:30am 235 1 G 3 60° 100% - - 60° 61.1° 59.5° - - 1008.0
6/22 2:20am 204 3 G 5 60° 100% - - 60° 61.1° 59.5° - - 1008.0
6/22 2:10am 218 3 G 5 60° 100% - - 60° 61.1° 59.5° - - 1008.0
6/22 2:00am 227 4 G 5 60° 100% - - 60° 61.1° 59.5° - - 1008.0
6/22 1:50am 231 3 G 6 60° 100% - - 60° 61.1° 59.5° - - 1008.0
6/22 1:40am 232 4 G 7 60° 100% - - 60° 61.1° 59.5° - - 1008.0
6/22 1:30am 230 3 G 6 60° 100% - - 60° 61.1° 59.6° - - 1008.0
6/22 1:20am 220 4 G 7 60° 100% - - 60° 61.1° 59.7° - - 1008.0
6/22 1:10am 220 6 G 9 60° 100% - - 60° 61.1° 59.8° - - 1008.0
6/22 1:00am 222 6 G 9 60° 100% - - 60° 61.1° 59.9° - - 1008.0
6/22 12:50am 223 8 G 10 60° 100% - - 60° 61.1° 59.9° - - 1008.0
6/22 12:40am 230 7 G 10 60° 100% - - 60° 61.1° 60° - - 1008.0
6/22 12:30am 237 4 G 7 60° 100% - - 60° 61° 60.1° - - 1008.0
6/22 12:20am 237 4 G 8 60° 100% - - 60° 60.9° 60.1° - - 1008.0
6/22 12:10am 237 5 G 7 60° 100% - - 60° 60.9° 60.1° - - 1008.0
6/22 12:00am 237 5 G 7 60° 100% - - 60° 85.2° 58.5° - - 1008.0
6/21 11:50pm 244 4 G 6 60° 100% - - 60° 85.2° 58.5° - - 1008.0
6/21 11:40pm 248 4 G 7 60° 100% - - 60° 85.2° 58.5° - - 1008.0
6/21 11:30pm 241 4 G 6 60° 100% - - 60° 85.2° 58.5° - - 1008.0
6/21 11:20pm 239 4 G 6 60° 99% - - 60° 85.2° 58.5° - - 1008.0
6/21 11:10pm 230 5 G 8 60° 99% - - 60° 85.2° 58.5° - - 1008.0
6/21 11:00pm 240 3 G 5 60° 99% - - 60° 85.2° 58.5° - - 1008.0
6/21 10:50pm 234 4 G 6 60° 99% - - 60° 85.2° 58.5° - - 1008.0
6/21 10:40pm 245 4 G 5 60° 99% - - 60° 85.2° 58.5° - - 1008.0
6/21 10:30pm 246 4 G 6 60° 99% - - 60° 85.2° 58.5° - - 1008.0
6/21 10:20pm 254 4 G 6 60° 99% - - 60° 85.2° 58.5° - - 1008.0
6/21 10:10pm 254 4 G 6 60° 99% - - 60° 85.2° 58.5° - - 1008.0
6/21 10:00pm 239 4 G 6 60° 98% - - 60° 85.2° 58.5° - - 1008.0
6/21 9:50pm 249 4 G 6 61° 98% - - 60° 85.2° 58.5° - - 1008.0
6/21 9:40pm 243 4 G 7 61° 97% - - 60° 85.2° 58.5° - - 1008.0
6/21 9:30pm 242 5 G 7 61° 96% - - 60° 85.2° 58.5° - - 1007.0
6/21 9:20pm 256 6 G 9 62° 94% - - 60° 85.2° 58.5° - - 1007.0
6/21 9:10pm 254 5 G 8 62° 93% - - 60° 85.2° 58.5° - - 1007.0
6/21 9:00pm 239 5 G 7 63° 91% - - 60° 85.2° 58.5° - - 1007.0
6/21 8:50pm 243 5 G 7 64° 89% - - 61° 85.2° 58.5° - - 1007.0
6/21 8:40pm 255 5 G 9 65° 87% - - 61° 85.2° 58.5° - - 1007.0
6/21 8:30pm 249 5 G 8 65° 85% - - 61° 85.2° 58.5° - - 1007.0
6/21 8:20pm 235 6 G 9 67° 82% - - 61° 85.2° 58.5° - - 1007.0
6/21 8:10pm 242 5 G 8 68° 80% - - 61° 85.2° 58.5° - - 1006.0
6/21 8:00pm 249 5 G 8 68° 78% - - 61° 85.2° 58.5° - - 1006.0
6/21 7:50pm 258 5 G 9 70° 75% - - 61° 85.2° 58.5° - - 1006.0
6/21 7:40pm 246 5 G 8 70° 73% - - 61° 85.2° 58.5° - - 1006.0
6/21 7:30pm 231 7 G 8 71° 73% - - 62° 85.2° 58.5° - - 1006.0
6/21 7:20pm 230 8 G 10 71° 72% - - 62° 85.2° 58.5° - - 1006.0
6/21 7:10pm 228 9 G 12 71° 71% - - 62° 85.2° 58.5° - - 1006.0
6/21 7:00pm 226 10 G 12 72° 70% - - 62° 85.2° 58.5° - - 1006.0
6/21 6:50pm 224 10 G 13 72° 68% - - 62° 85.2° 58.5° - - 1006.0
6/21 6:40pm 222 10 G 13 73° 66% - - 62° 85.2° 58.5° - - 1006.0
6/21 6:30pm 233 7 G 11 75° 63% - - 62° 85.2° 58.5° - - 1006.0
6/21 6:20pm 228 8 G 13 75° 63% - - 62° 85.2° 58.5° - - 1006.0
6/21 6:10pm 231 8 G 13 76° 62% - - 62° 85.2° 58.5° - - 1006.0
6/21 6:00pm 237 7 G 12 76° 61% - - 62° 85.2° 58.5° - - 1006.0
6/21 5:50pm 238 7 G 11 76° 61% - - 62° 85.2° 58.5° - - 1006.0
6/21 5:40pm 251 8 G 12 77° 60% - - 62° 85.2° 58.5° - - 1006.0
6/21 5:30pm 233 8 G 12 77° 59% - - 62° 85.2° 58.5° - - 1006.0
6/21 5:20pm 230 11 G 17 76° 62% - - 62° 85.2° 58.5° - - 1006.0
6/21 5:10pm 219 13 G 18 76° 62% - - 62° 85.2° 58.5° - - 1006.0
6/21 5:00pm 213 14 G 17 76° 61% - - 62° 85.2° 58.5° - - 1006.0
6/21 4:50pm 221 12 G 17 78° 58% - - 62° 85.2° 58.5° - - 1006.0
6/21 4:40pm 227 10 G 15 78° 57% - - 62° 85.2° 58.5° - - 1006.0
6/21 4:30pm 230 10 G 16 79° 57% - - 62° 85.2° 58.5° - - 1006.0
6/21 4:20pm 228 11 G 16 79° 58% - - 62° 85.2° 58.5° - - 1006.0
6/21 4:10pm 229 10 G 17 79° 57% - - 63° 85.2° 58.5° - - 1006.0
6/21 4:00pm 226 11 G 18 79° 58% - - 63° 85.2° 58.5° - - 1006.0
6/21 3:50pm 228 11 G 18 79° 57% - - 63° 85.2° 58.5° - - 1006.0
6/21 3:40pm 223 13 G 18 79° 57% - - 63° 85.2° 58.5° - - 1006.0
6/21 3:30pm 228 13 G 19 79° 57% - - 63° 85.2° 58.5° - - 1006.0
6/21 3:20pm 225 13 G 19 79° 57% - - 63° 85.2° 58.5° - - 1006.0
6/21 3:10pm 226 13 G 19 79° 56% - - 63° 85.2° 58.5° - - 1006.0
6/21 3:00pm 222 13 G 19 80° 56% - - 63° 85.2° 58.5° - - 1007.0
6/21 2:50pm 227 13 G 19 80° 56% - - 63° 85.2° 58.5° - - 1007.0
6/21 2:40pm 225 12 G 17 80° 56% - - 63° 85.2° 58.5° - - 1007.0
6/21 2:30pm 229 12 G 18 80° 56% - - 63° 85.2° 58.5° - - 1007.0
6/21 2:20pm 225 13 G 19 80° 56% - - 63° 85.2° 58.5° - - 1007.0
6/21 2:10pm 229 12 G 17 81° 55% - - 63° 85.2° 58.5° - - 1007.0
6/21 2:00pm 228 13 G 18 81° 55% - - 63° 85.2° 58.5° - - 1007.0
6/21 1:50pm 230 12 G 19 82° 53% - - 63° 85.2° 58.5° - - 1007.0
6/21 1:40pm 222 15 G 20 82° 55% - - 64° 85.2° 58.5° - - 1007.0
6/21 1:30pm 230 11 G 19 83° 52% - - 63° 85.2° 58.5° - - 1007.0
6/21 1:20pm 232 11 G 19 84° 51% - - 64° 85.2° 58.5° - - 1007.0
6/21 1:10pm 249 10 G 16 84° 49% - - 63° 85.2° 58.5° - - 1007.0
6/21 1:00pm 230 10 G 16 84° 50% - - 63° 85.2° 58.5° - - 1007.0
6/21 12:50pm 229 10 G 15 84° 51% - - 64° 85.2° 58.5° - - 1007.0
6/21 12:40pm 230 9 G 14 84° 51% - - 63° 85.2° 58.5° - - 1007.0
6/21 12:30pm 230 9 G 13 83° 51% - - 63° 85.2° 58.5° - - 1007.0
6/21 12:20pm 230 9 G 14 84° 50% - - 63° 85.2° 58.5° - - 1007.0
6/21 12:10pm 251 8 G 13 84° 50% - - 64° 85.2° 58.5° - - 1007.0
6/21 12:00pm 239 7 G 12 84° 51% - - 64° 85.2° 58.5° - - 1007.0
6/21 11:50am 237 9 G 14 83° 52% - - 64° 84.4° 58.5° - - 1007.0
6/21 11:40am 225 10 G 14 83° 53% - - 64° 84.1° 58.5° - - 1007.0
6/21 11:30am 227 9 G 15 83° 53% - - 64° 84.1° 58.5° - - 1008.0
6/21 11:20am 231 8 G 13 83° 53% - - 64° 84.1° 58.5° - - 1008.0
6/21 11:10am 226 8 G 13 82° 55% - - 64° 82.3° 58.5° - - 1008.0
6/21 11:00am 225 8 G 12 81° 56% - - 64° 82° 58.5° - - 1008.0
6/21 10:50am 231 6 G 11 81° 56% - - 64° 81.9° 58.5° - - 1008.0
6/21 10:40am 262 6 G 10 80° 57% - - 64° 81.5° 58.5° - - 1008.0
6/21 10:30am 243 6 G 9 80° 58% - - 64° 80.2° 58.5° - - 1008.0
6/21 10:20am 244 6 G 10 79° 59% - - 64° 80.2° 58.5° - - 1008.0
6/21 10:10am 224 6 G 10 77° 63% - - 64° 79.1° 58.5° - - 1008.0
6/21 10:00am 222 7 G 11 76° 66% - - 64° 77° 58.5° - - 1008.0
6/21 9:50am 220 6 G 9 75° 68% - - 64° 76.1° 58.5° - - 1008.0
6/21 9:40am 223 6 G 10 74° 70% - - 64° 74.7° 58.5° - - 1008.0
6/21 9:30am 220 6 G 9 74° 71% - - 64° 74.4° 58.5° - - 1008.0
6/21 9:20am 229 5 G 8 72° 75% - - 64° 73.2° 58.5° - - 1009.0
6/21 9:10am 228 4 G 7 70° 81% - - 64° 71.9° 58.5° - - 1008.0
6/21 9:00am 220 4 G 8 69° 86% - - 64° 69.7° 58.5° - - 1009.0
6/21 8:50am 227 3 G 6 67° 92% - - 65° 68.5° 58.5° - - 1009.0
6/21 8:40am 228 3 G 6 66° 95% - - 65° 67° 58.5° - - 1009.0
6/21 8:30am 245 3 G 6 65° 98% - - 65° 66.6° 58.5° - - 1009.0
6/21 8:20am 247 2 G 5 64° 99% - - 64° 65.5° 58.5° - - 1009.0
6/21 8:10am 247 2 G 5 64° 99% - - 64° 65.5° 58.5° - - 1009.0
6/21 8:00am 47 2 G 5 64° 99% - - 64° 65.5° 58.5° - - 1009.0
6/21 7:50am 38 5 G 6 63° 100% - - 63° 65.5° 58.5° - - 1008.0
6/21 7:40am 43 6 G 7 62° 100% - - 62° 65.5° 58.5° - - 1008.0
6/21 7:30am 43 3 G 5 62° 100% - - 62° 65.5° 58.5° - - 1009.0
6/21 7:20am 31 2 G 3 62° 100% - - 62° 65.5° 58.5° - - 1009.0
6/21 7:10am 38 2 G 3 61° 100% - - 61° 65.5° 58.5° - - 1009.0
6/21 7:00am 23 1 G 2 61° 100% - - 61° 65.5° 58.5° - - 1009.0
6/21 6:50am 71 1 G 3 61° 100% - - 61° 65.5° 58.5° - - 1009.0
6/21 6:40am 228 2 G 4 60° 100% - - 60° 65.5° 58.5° - - 1009.0
6/21 6:30am 236 2 G 4 60° 100% - - 60° 65.5° 58.5° - - 1009.0
6/21 6:20am 246 2 G 4 60° 100% - - 60° 65.5° 58.5° - - 1009.0
6/21 6:10am 255 3 G 5 60° 100% - - 60° 65.5° 58.5° - - 1009.0
6/21 6:00am 266 3 G 5 60° 100% - - 60° 65.5° 58.5° - - 1009.0
6/21 5:50am 249 3 G 5 60° 100% - - 60° 65.5° 58.5° - - 1009.0
6/21 5:40am 254 2 G 4 60° 100% - - 60° 65.5° 58.5° - - 1009.0
6/21 5:30am 240 3 G 5 59° 100% - - 59° 65.5° 58.5° - - 1009.0
6/21 5:20am 218 4 G 4 59° 100% - - 59° 65.5° 58.5° - - 1008.0
6/21 5:10am 211 4 G 6 59° 100% - - 59° 65.5° 58.7° - - 1009.0
6/21 5:00am 196 4 G 5 59° 100% - - 59° 65.5° 58.7° - - 1009.0
6/21 4:50am 192 4 G 5 59° 100% - - 59° 65.5° 58.7° - - 1008.0
6/21 4:40am 190 4 G 5 59° 100% - - 59° 65.5° 58.7° - - 1008.0
6/21 4:30am 196 4 G 5 59° 100% - - 59° 65.5° 58.7° - - 1008.0
6/21 4:20am 204 3 G 4 59° 100% - - 59° 65.5° 58.9° - - 1008.0
6/21 4:10am 214 3 G 4 59° 100% - - 59° 65.5° 58.9° - - 1009.0
6/21 4:00am 192 2 G 3 60° 100% - - 60° 65.5° 59.1° - - 1009.0
6/21 3:50am 205 3 G 3 60° 100% - - 59° 65.5° 59.1° - - 1009.0
6/21 3:40am 203 2 G 4 60° 100% - - 60° 65.5° 59.2° - - 1009.0
6/21 3:30am 219 3 G 4 60° 100% - - 60° 65.5° 59.3° - - 1009.0
6/21 3:20am 218 3 G 3 60° 100% - - 60° 65.5° 59.4° - - 1009.0
6/21 3:10am 177 2 G 3 60° 100% - - 60° 65.5° 59.5° - - 1009.0
6/21 3:00am 206 3 G 5 60° 100% - - 60° 65.5° 59.5° - - 1009.0
6/21 2:50am 195 1 G 4 60° 100% - - 60° 65.5° 59.5° - - 1009.0
6/21 2:40am 117 1 G 3 60° 100% - - 60° 65.5° 59.5° - - 1009.0
6/21 2:30am 215 3 G 5 60° 100% - - 60° 65.5° 59.5° - - 1009.0
6/21 2:20am 206 5 G 6 60° 99% - - 60° 65.5° 59.5° - - 1009.0
6/21 2:10am 215 4 G 5 60° 99% - - 60° 65.5° 59.7° - - 1009.0
6/21 2:00am 217 3 G 5 60° 99% - - 60° 65.5° 59.7° - - 1009.0
6/21 1:50am 220 4 G 5 60° 99% - - 60° 65.5° 59.7° - - 1009.0
6/21 1:40am 211 3 G 5 61° 98% - - 60° 65.5° 59.9° - - 1009.0
6/21 1:30am 236 2 G 4 61° 98% - - 61° 65.5° 60.7° - - 1009.0
6/21 1:20am 230 3 G 4 61° 98% - - 61° 65.5° 60.8° - - 1009.0
6/21 1:10am 241 2 G 3 61° 97% - - 61° 65.5° 61° - - 1009.0
6/21 1:00am 237 3 G 4 62° 95% - - 61° 65.5° 61.6° - - 1009.0
6/21 12:50am 213 2 G 4 64° 89% - - 61° 65.5° 61.9° - - 1009.0
6/21 12:40am 43 2 G 3 65° 88% - - 61° 65.5° 61.9° - - 1009.0
6/21 12:30am 67 3 G 3 65° 89% - - 62° 65.5° 61.9° - - 1009.0
6/21 12:20am 44 2 G 3 64° 92% - - 62° 65° 61.9° - - 1009.0
6/21 12:10am 227 0 G 3 63° 97% - - 62° 63.4° 61.9° - - 1010.0
6/21 12:00am 234 3 G 4 62° 97% - - 61° 88.9° 60.6° - - 1010.0
6/20 11:50pm 245 3 G 4 61° 98% - - 60° 88.9° 60.6° - - 1010.0
6/20 11:40pm 227 5 G 6 61° 96% - - 60° 88.9° 60.8° - - 1010.0
6/20 11:30pm 203 5 G 7 64° 90% - - 61° 88.9° 61.6° - - 1010.0
6/20 11:20pm 199 1 G 3 65° 89% - - 62° 88.9° 61.9° - - 1010.0
6/20 11:10pm 211 3 G 4 63° 95% - - 61° 88.9° 61.9° - - 1010.0
6/20 11:00pm 209 4 G 5 63° 93% - - 61° 88.9° 61.9° - - 1010.0
6/20 10:50pm 233 3 G 4 64° 91% - - 61° 88.9° 61.9° - - 1010.0
6/20 10:40pm 221 3 G 4 65° 88% - - 62° 88.9° 61.9° - - 1010.0
6/20 10:30pm 213 2 G 3 64° 91% - - 62° 88.9° 61.9° - - 1010.0
6/20 10:20pm 222 2 G 4 63° 95% - - 62° 88.9° 61.9° - - 1010.0
6/20 10:10pm 218 4 G 5 62° 95% - - 61° 88.9° 61.9° - - 1010.0
6/20 10:00pm 214 3 G 5 63° 94% - - 61° 88.9° 62.3° - - 1010.0
6/20 9:50pm 229 4 G 6 63° 93% - - 61° 88.9° 62.3° - - 1010.0
6/20 9:40pm 231 5 G 7 63° 92% - - 61° 88.9° 62.3° - - 1010.0
6/20 9:30pm 226 5 G 8 64° 90% - - 61° 88.9° 62.3° - - 1010.0
6/20 9:20pm 236 5 G 8 65° 88% - - 61° 88.9° 62.3° - - 1010.0
6/20 9:10pm 235 5 G 8 65° 86% - - 61° 88.9° 62.3° - - 1010.0
6/20 9:00pm 229 5 G 7 67° 83% - - 61° 88.9° 62.3° - - 1009.0
6/20 8:50pm 224 5 G 7 67° 81% - - 61° 88.9° 62.3° - - 1009.0
6/20 8:40pm 232 4 G 7 68° 79% - - 61° 88.9° 62.3° - - 1009.0
6/20 8:30pm 239 5 G 7 69° 76% - - 61° 88.9° 62.3° - - 1009.0
6/20 8:20pm 239 5 G 7 70° 72% - - 61° 88.9° 62.3° - - 1009.0
6/20 8:10pm 247 5 G 8 72° 69% - - 61° 88.9° 62.3° - - 1009.0
6/20 8:00pm 224 4 G 7 73° 65% - - 61° 88.9° 62.3° - - 1009.0
6/20 7:50pm 246 4 G 8 75° 62% - - 61° 88.9° 62.3° - - 1008.0
6/20 7:40pm 256 5 G 8 76° 58% - - 60° 88.9° 62.3° - - 1008.0
6/20 7:30pm 258 6 G 9 77° 56% - - 60° 88.9° 62.3° - - 1008.0
6/20 7:20pm 259 6 G 9 79° 52% - - 60° 88.9° 62.3° - - 1008.0
6/20 7:10pm 239 5 G 9 81° 49% - - 60° 88.9° 62.3° - - 1008.0
6/20 7:00pm 242 5 G 7 81° 47% - - 59° 88.9° 62.3° - - 1008.0
6/20 6:50pm 239 5 G 8 82° 46% - - 59° 88.9° 62.3° - - 1008.0
6/20 6:40pm 241 4 G 7 82° 46% - - 59° 88.9° 62.3° - - 1008.0
6/20 6:30pm 256 4 G 7 82° 45% - - 59° 88.9° 62.3° - - 1008.0
6/20 6:20pm 226 5 G 8 81° 47% - - 59° 88.9° 62.3° - - 1008.0
6/20 6:10pm 239 4 G 6 82° 47% - - 60° 88.9° 62.3° - - 1008.0
6/20 6:00pm 252 5 G 10 82° 46% - - 59° 88.9° 62.3° - - 1008.0